sensor_id;sensor_type;location;lat;lon;timestamp;temperature;humidity
73875;HTU21D;62209;47.568;7.558;2022-08-19T00:07:06;18.80;107.89
73875;HTU21D;62209;47.568;7.558;2022-08-19T00:22:12;18.70;108.20
73875;HTU21D;62209;47.568;7.558;2022-08-19T00:37:17;18.49;108.84
73875;HTU21D;62209;47.568;7.558;2022-08-19T00:52:24;18.56;109.43
73875;HTU21D;62209;47.568;7.558;2022-08-19T01:07:32;18.50;109.90
73875;HTU21D;62209;47.568;7.558;2022-08-19T01:22:42;18.39;110.12
73875;HTU21D;62209;47.568;7.558;2022-08-19T01:37:50;18.27;110.20
73875;HTU21D;62209;47.568;7.558;2022-08-19T01:52:58;18.21;110.23
73875;HTU21D;62209;47.568;7.558;2022-08-19T02:08:09;18.17;110.46
73875;HTU21D;62209;47.568;7.558;2022-08-19T02:23:15;18.25;110.78
73875;HTU21D;62209;47.568;7.558;2022-08-19T02:38:21;18.05;110.34
73875;HTU21D;62209;47.568;7.558;2022-08-19T02:53:30;18.04;110.51
73875;HTU21D;62209;47.568;7.558;2022-08-19T03:08:36;18.08;110.79
73875;HTU21D;62209;47.568;7.558;2022-08-19T03:23:42;17.94;110.61
73875;HTU21D;62209;47.568;7.558;2022-08-19T03:38:48;18.03;111.02
73875;HTU21D;62209;47.568;7.558;2022-08-19T03:54:02;18.07;111.32
73875;HTU21D;62209;47.568;7.558;2022-08-19T04:09:10;17.98;110.91
73875;HTU21D;62209;47.568;7.558;2022-08-19T04:24:16;18.05;111.61
73875;HTU21D;62209;47.568;7.558;2022-08-19T04:39:25;18.00;111.41
73875;HTU21D;62209;47.568;7.558;2022-08-19T04:54:46;17.99;111.46
73875;HTU21D;62209;47.568;7.558;2022-08-19T05:09:52;17.98;111.04
73875;HTU21D;62209;47.568;7.558;2022-08-19T05:25:02;18.03;111.23
73875;HTU21D;62209;47.568;7.558;2022-08-19T05:40:16;18.09;110.87
73875;HTU21D;62209;47.568;7.558;2022-08-19T05:55:24;18.29;111.54
73875;HTU21D;62209;47.568;7.558;2022-08-19T06:10:30;18.35;110.90
73875;HTU21D;62209;47.568;7.558;2022-08-19T06:25:35;18.42;110.97
73875;HTU21D;62209;47.568;7.558;2022-08-19T06:40:44;18.59;111.37
73875;HTU21D;62209;47.568;7.558;2022-08-19T06:55:49;18.55;110.36
73875;HTU21D;62209;47.568;7.558;2022-08-19T07:11:04;18.84;110.51
73875;HTU21D;62209;47.568;7.558;2022-08-19T07:26:12;18.97;110.01
73875;HTU21D;62209;47.568;7.558;2022-08-19T07:41:20;19.07;109.93
73875;HTU21D;62209;47.568;7.558;2022-08-19T07:56:28;19.01;109.43
73875;HTU21D;62209;47.568;7.558;2022-08-19T08:11:34;19.20;109.61
73875;HTU21D;62209;47.568;7.558;2022-08-19T08:26:41;19.38;108.82
73875;HTU21D;62209;47.568;7.558;2022-08-19T08:41:52;19.81;107.75
73875;HTU21D;62209;47.568;7.558;2022-08-19T08:57:01;20.24;106.34
73875;HTU21D;62209;47.568;7.558;2022-08-19T09:12:12;20.61;104.93
73875;HTU21D;62209;47.568;7.558;2022-08-19T09:27:29;21.64;101.83
73875;HTU21D;62209;47.568;7.558;2022-08-19T09:42:44;21.39;101.70
73875;HTU21D;62209;47.568;7.558;2022-08-19T09:57:54;20.83;102.15
73875;HTU21D;62209;47.568;7.558;2022-08-19T10:13:00;20.86;101.66
73875;HTU21D;62209;47.568;7.558;2022-08-19T10:28:05;20.93;101.15
73875;HTU21D;62209;47.568;7.558;2022-08-19T10:43:12;21.05;99.47
73875;HTU21D;62209;47.568;7.558;2022-08-19T10:58:20;21.32;100.17
73875;HTU21D;62209;47.568;7.558;2022-08-19T11:13:26;21.47;100.64
73875;HTU21D;62209;47.568;7.558;2022-08-19T11:28:32;21.43;100.15
73875;HTU21D;62209;47.568;7.558;2022-08-19T11:43:38;21.61;99.86
73875;HTU21D;62209;47.568;7.558;2022-08-19T11:58:44;22.13;97.84
73875;HTU21D;62209;47.568;7.558;2022-08-19T12:13:49;22.87;94.92
73875;HTU21D;62209;47.568;7.558;2022-08-19T12:28:56;23.71;91.90
73875;HTU21D;62209;47.568;7.558;2022-08-19T12:44:02;23.34;92.97
73875;HTU21D;62209;47.568;7.558;2022-08-19T12:59:10;21.87;95.89
73875;HTU21D;62209;47.568;7.558;2022-08-19T13:14:17;21.78;98.27
73875;HTU21D;62209;47.568;7.558;2022-08-19T13:29:22;21.97;99.26
73875;HTU21D;62209;47.568;7.558;2022-08-19T13:44:45;21.98;99.17
73875;HTU21D;62209;47.568;7.558;2022-08-19T13:59:51;22.22;98.85
73875;HTU21D;62209;47.568;7.558;2022-08-19T14:14:57;22.36;98.48
73875;HTU21D;62209;47.568;7.558;2022-08-19T14:30:04;22.37;98.63
73875;HTU21D;62209;47.568;7.558;2022-08-19T14:45:11;22.06;98.82
73875;HTU21D;62209;47.568;7.558;2022-08-19T15:00:17;21.51;97.08
73875;HTU21D;62209;47.568;7.558;2022-08-19T15:15:22;21.44;97.81
73875;HTU21D;62209;47.568;7.558;2022-08-19T15:30:28;21.43;97.58
73875;HTU21D;62209;47.568;7.558;2022-08-19T15:45:35;21.14;98.08
73875;HTU21D;62209;47.568;7.558;2022-08-19T16:00:42;21.30;96.70
73875;HTU21D;62209;47.568;7.558;2022-08-19T16:16:14;20.79;99.49
73875;HTU21D;62209;47.568;7.558;2022-08-19T16:31:20;20.78;100.52
73875;HTU21D;62209;47.568;7.558;2022-08-19T16:46:25;20.76;100.35
73875;HTU21D;62209;47.568;7.558;2022-08-19T17:01:31;20.81;100.22
73875;HTU21D;62209;47.568;7.558;2022-08-19T17:16:37;20.84;100.32
73875;HTU21D;62209;47.568;7.558;2022-08-19T17:31:42;20.58;101.42
73875;HTU21D;62209;47.568;7.558;2022-08-19T17:46:48;20.47;102.89
73875;HTU21D;62209;47.568;7.558;2022-08-19T18:01:55;20.61;102.86
73875;HTU21D;62209;47.568;7.558;2022-08-19T18:17:03;20.70;101.88
73875;HTU21D;62209;47.568;7.558;2022-08-19T18:32:12;20.41;103.38
73875;HTU21D;62209;47.568;7.558;2022-08-19T18:47:25;20.04;103.84
73875;HTU21D;62209;47.568;7.558;2022-08-19T19:02:48;19.74;104.15
73875;HTU21D;62209;47.568;7.558;2022-08-19T19:17:56;19.53;104.37
73875;HTU21D;62209;47.568;7.558;2022-08-19T19:33:03;19.30;105.01
73875;HTU21D;62209;47.568;7.558;2022-08-19T19:48:09;19.16;105.16
73875;HTU21D;62209;47.568;7.558;2022-08-19T20:03:17;18.92;105.47
73875;HTU21D;62209;47.568;7.558;2022-08-19T20:18:23;18.81;105.92
73875;HTU21D;62209;47.568;7.558;2022-08-19T20:33:29;18.49;106.20
73875;HTU21D;62209;47.568;7.558;2022-08-19T20:48:34;18.21;106.48
73875;HTU21D;62209;47.568;7.558;2022-08-19T21:03:41;17.88;107.28
73875;HTU21D;62209;47.568;7.558;2022-08-19T21:18:47;17.75;107.11
73875;HTU21D;62209;47.568;7.558;2022-08-19T21:33:53;17.89;108.34
73875;HTU21D;62209;47.568;7.558;2022-08-19T21:48:59;17.90;108.99
73875;HTU21D;62209;47.568;7.558;2022-08-19T22:04:04;17.90;109.01
73875;HTU21D;62209;47.568;7.558;2022-08-19T22:19:10;17.80;109.34
73875;HTU21D;62209;47.568;7.558;2022-08-19T22:34:15;17.69;109.20
73875;HTU21D;62209;47.568;7.558;2022-08-19T22:49:21;17.66;109.52
73875;HTU21D;62209;47.568;7.558;2022-08-19T23:04:27;17.77;109.68
73875;HTU21D;62209;47.568;7.558;2022-08-19T23:19:32;17.88;109.87
73875;HTU21D;62209;47.568;7.558;2022-08-19T23:34:40;17.91;109.97
73875;HTU21D;62209;47.568;7.558;2022-08-19T23:49:46;17.84;109.73
